Time;durP1;ratioP1;P1;durP2;ratioP2;P2;SDS_P1;SDS_P2;PMS_P1;PMS_P2;Temp;Humidity;BMP_temperature;BMP_pressure;BME280_temperature;BME280_humidity;BME280_pressure;Samples;Min_cycle;Max_cycle;Signal;HPM_P1;HPM_P2
2022/11/24 00:00:52;;;;;;;21.00;12.13;;;;;;;2.99;72.98;100150.19;1616009;87;21083;-71
2022/11/24 00:03:18;;;;;;;24.65;13.72;;;;;;;2.99;73.02;100134.36;1615161;87;21100;-71
2022/11/24 00:05:46;;;;;;;23.73;13.32;;;;;;;3.00;72.98;100140.47;1621227;87;21022;-71
2022/11/24 00:08:13;;;;;;;23.10;13.53;;;;;;;2.97;73.00;100131.16;1635322;86;21001;-70
2022/11/24 00:10:40;;;;;;;24.37;13.25;;;;;;;2.96;73.03;100130.03;1635141;87;21136;-71
2022/11/24 00:13:06;;;;;;;23.10;13.43;;;;;;;2.95;73.07;100129.23;1615650;87;21023;-71
2022/11/24 00:15:32;;;;;;;21.45;13.03;;;;;;;2.93;73.06;100120.75;1624810;86;21135;-70
2022/11/24 00:18:00;;;;;;;21.20;12.50;;;;;;;2.97;73.12;100115.33;1632677;86;21140;-70
2022/11/24 00:20:26;;;;;;;19.48;11.88;;;;;;;3.01;73.16;100109.90;1632197;86;21634;-70
2022/11/24 00:22:54;;;;;;;22.30;13.10;;;;;;;3.05;73.13;100091.28;1633480;86;21217;-71
2022/11/24 00:25:21;;;;;;;23.05;13.15;;;;;;;3.04;73.07;100091.00;1634584;87;21516;-70
2022/11/24 00:27:47;;;;;;;21.45;12.53;;;;;;;2.99;73.04;100100.06;1635805;87;21128;-70
2022/11/24 00:30:14;;;;;;;21.60;12.50;;;;;;;3.00;73.07;100092.98;1635165;86;21162;-70
2022/11/24 00:32:40;;;;;;;22.82;13.00;;;;;;;2.97;73.08;100091.58;1635613;87;21018;-70
2022/11/24 00:35:07;;;;;;;22.02;12.78;;;;;;;2.96;73.09;100097.06;1633046;86;21287;-70
2022/11/24 00:37:34;;;;;;;23.35;13.50;;;;;;;2.98;73.15;100093.19;1631205;86;21105;-70
2022/11/24 00:40:01;;;;;;;20.72;13.35;;;;;;;2.99;73.22;100093.47;1619992;87;21081;-70
2022/11/24 00:42:29;;;;;;;23.27;13.95;;;;;;;2.97;73.16;100087.63;1623739;86;21035;-70
2022/11/24 00:44:55;;;;;;;22.75;13.60;;;;;;;2.96;73.19;100092.62;1613317;86;21151;-70
2022/11/24 00:47:22;;;;;;;22.73;14.13;;;;;;;2.97;73.17;100082.86;1634647;86;21230;-70
2022/11/24 00:49:48;;;;;;;21.82;14.07;;;;;;;2.97;73.18;100084.98;1623460;87;21088;-69
2022/11/24 00:52:16;;;;;;;22.93;13.60;;;;;;;2.99;73.18;100081.59;1615678;87;21059;-70
2022/11/24 00:54:43;;;;;;;21.60;14.07;;;;;;;3.01;73.17;100082.72;1604326;88;21086;-70
2022/11/24 00:57:09;;;;;;;20.55;12.60;;;;;;;3.04;73.18;100075.17;1624433;87;20965;-70
2022/11/24 00:59:37;;;;;;;21.05;13.50;;;;;;;3.04;73.09;100077.80;1619164;86;21147;-70
2022/11/24 01:02:04;;;;;;;22.73;13.53;;;;;;;3.03;73.05;100069.61;1635227;87;21009;-70
2022/11/24 01:04:30;;;;;;;21.37;13.83;;;;;;;3.07;73.04;100061.25;1635142;86;21084;-70
2022/11/24 01:06:57;;;;;;;19.73;13.35;;;;;;;3.08;73.03;100062.34;1614498;86;21562;-70
2022/11/24 01:09:24;;;;;;;22.20;13.68;;;;;;;3.10;73.04;100066.09;1621916;86;21483;-70
2022/11/24 01:12:03;;;;;;;22.82;14.15;;;;;;;3.12;73.04;100067.98;1627862;86;21237;-70
2022/11/24 01:14:31;;;;;;;19.92;12.95;;;;;;;3.08;73.07;100058.38;1611368;86;21117;-70
2022/11/24 01:16:59;;;;;;;23.42;14.40;;;;;;;3.08;73.04;100062.86;1628206;86;21603;-70
2022/11/24 01:19:26;;;;;;;22.32;14.15;;;;;;;3.07;73.02;100062.58;1614877;87;21544;-69
2022/11/24 01:21:52;;;;;;;22.20;13.70;;;;;;;3.06;73.07;100049.90;1610226;86;21064;-70
2022/11/24 01:24:19;;;;;;;22.50;13.85;;;;;;;3.07;73.14;100033.55;1610482;86;21998;-70
2022/11/24 01:26:46;;;;;;;21.97;13.75;;;;;;;3.07;73.17;100032.23;1635591;87;21057;-70
2022/11/24 01:29:14;;;;;;;22.60;14.18;;;;;;;3.04;73.14;100027.67;1630587;86;21164;-70
2022/11/24 01:31:40;;;;;;;22.10;14.28;;;;;;;3.05;73.17;100031.91;1635689;87;21127;-69
2022/11/24 01:34:06;;;;;;;22.50;14.58;;;;;;;3.08;73.19;100024.59;1635985;87;20997;-69
2022/11/24 01:36:33;;;;;;;23.90;15.03;;;;;;;3.09;73.15;100015.64;1635047;86;21582;-71
2022/11/24 01:38:59;;;;;;;22.77;14.87;;;;;;;3.14;73.17;100023.72;1617435;87;21580;-69
2022/11/24 04:54:15;;;;;;;22.58;15.23;;;;;;;3.29;72.92;99860.48;1615680;87;21528;-71
2022/11/24 04:56:42;;;;;;;25.80;15.70;;;;;;;3.29;72.96;99857.84;1621237;88;21032;-71
2022/11/24 04:59:15;;;;;;;23.67;14.87;;;;;;;3.29;73.03;99848.12;1624446;88;21570;-72
2022/11/24 05:01:43;;;;;;;23.65;15.20;;;;;;;3.27;73.11;99855.97;1617560;88;21544;-71
2022/11/24 05:04:11;;;;;;;21.95;14.63;;;;;;;3.27;73.16;99850.17;1615433;88;21874;-71
2022/11/24 05:06:40;;;;;;;26.68;15.78;;;;;;;3.28;73.20;99858.88;1616127;88;20994;-72
2022/11/24 05:09:08;;;;;;;22.30;14.10;;;;;;;3.34;73.22;99858.50;1615952;87;21565;-71
2022/11/24 05:11:34;;;;;;;22.95;15.03;;;;;;;3.33;73.26;99864.83;1591911;88;21749;-71
2022/11/24 05:14:01;;;;;;;23.50;14.43;;;;;;;3.33;73.32;99864.83;1615630;88;21658;-71
2022/11/24 05:16:29;;;;;;;23.30;14.00;;;;;;;3.35;73.37;99868.02;1616599;87;21022;-71
2022/11/24 05:18:56;;;;;;;23.52;14.95;;;;;;;3.36;73.42;99873.09;1617792;88;21593;-72
2022/11/24 05:21:23;;;;;;;23.18;14.63;;;;;;;3.35;73.46;99870.14;1616858;88;21212;-72
2022/11/24 05:23:49;;;;;;;23.52;14.47;;;;;;;3.27;73.61;99866.00;1616825;87;21208;-72
2022/11/24 05:26:16;;;;;;;21.93;13.62;;;;;;;3.27;73.68;99858.61;1617256;88;21053;-72
2022/11/24 05:28:42;;;;;;;22.58;14.58;;;;;;;3.24;73.82;99858.53;1615605;88;21109;-71
2022/11/24 05:31:10;;;;;;;23.02;14.35;;;;;;;3.24;73.96;99865.66;1617184;87;21042;-72
2022/11/24 05:33:37;;;;;;;21.52;12.88;;;;;;;3.24;74.02;99861.69;1617413;88;21548;-72
2022/11/24 05:36:05;;;;;;;19.20;12.18;;;;;;;3.28;74.08;99867.60;1615541;87;21848;-72
2022/11/24 05:38:32;;;;;;;23.05;13.78;;;;;;;3.33;74.11;99874.06;1617322;88;21587;-72
2022/11/24 05:41:03;;;;;;;20.80;13.18;;;;;;;3.35;74.14;99869.34;1607162;88;21593;-72
2022/11/24 05:43:30;;;;;;;20.65;13.93;;;;;;;3.39;74.16;99878.41;1616619;88;21074;-72
2022/11/24 05:46:00;;;;;;;19.70;13.08;;;;;;;3.39;74.16;99885.02;1612494;87;21069;-71
2022/11/24 05:48:27;;;;;;;18.12;11.68;;;;;;;3.43;74.21;99891.47;1617208;88;21836;-73
2022/11/24 05:50:57;;;;;;;19.95;13.03;;;;;;;3.49;74.21;99895.33;1606756;87;21682;-73
2022/11/24 05:53:25;;;;;;;19.45;12.60;;;;;;;3.53;74.22;99895.16;1625558;86;21062;-73
2022/11/24 05:55:51;;;;;;;22.45;14.03;;;;;;;3.56;74.16;99897.07;1636886;86;21073;-73
2022/11/24 05:58:18;;;;;;;20.45;12.82;;;;;;;3.56;74.11;99895.23;1595035;88;21031;-73
2022/11/24 06:00:44;;;;;;;20.43;14.20;;;;;;;3.57;74.12;99894.70;1633428;87;21639;-73
2022/11/24 06:03:12;;;;;;;20.85;12.68;;;;;;;3.59;74.12;99888.70;1614128;86;20983;-73
2022/11/24 06:05:39;;;;;;;20.02;13.38;;;;;;;3.58;74.10;99886.55;1627949;86;21606;-73
2022/11/24 06:08:05;;;;;;;22.10;13.32;;;;;;;3.58;74.08;99888.39;1614461;86;21127;-73
2022/11/24 06:10:32;;;;;;;20.55;12.95;;;;;;;3.55;74.08;99892.80;1634453;87;21005;-73
2022/11/24 06:13:01;;;;;;;20.70;13.30;;;;;;;3.52;74.14;99884.31;1636054;87;21192;-73
2022/11/24 06:15:28;;;;;;;20.72;13.53;;;;;;;3.57;74.16;99894.70;1588337;87;21433;-73
2022/11/24 06:17:54;;;;;;;21.15;13.58;;;;;;;3.58;74.15;99897.11;1630960;86;21049;-73
2022/11/24 06:20:22;;;;;;;20.10;11.97;;;;;;;3.57;74.13;99896.83;1635449;87;21107;-73
2022/11/24 06:22:49;;;;;;;18.60;11.70;;;;;;;3.60;74.14;99898.22;1631103;86;21053;-73
2022/11/24 06:25:16;;;;;;;19.60;12.07;;;;;;;3.60;74.10;99902.18;1604870;88;21116;-73
2022/11/24 06:27:43;;;;;;;20.97;13.20;;;;;;;3.60;74.12;99900.86;1626981;86;21560;-73
2022/11/24 06:30:13;;;;;;;18.85;11.73;;;;;;;3.59;74.10;99898.73;1635154;87;21101;-73
2022/11/24 06:32:43;;;;;;;20.23;12.23;;;;;;;3.60;74.15;99896.38;1629773;86;21060;-73
2022/11/24 06:35:08;;;;;;;21.35;13.58;;;;;;;3.62;74.16;99900.09;1628409;87;21802;-71
2022/11/24 06:37:36;;;;;;;18.67;11.93;;;;;;;3.65;74.14;99907.08;1633420;87;21671;-71
2022/11/24 06:40:05;;;;;;;19.70;12.53;;;;;;;3.68;74.17;99912.40;1622056;86;21732;-72
2022/11/24 06:42:31;;;;;;;17.23;11.20;;;;;;;3.72;74.13;99904.33;1624082;86;21675;-71
2022/11/24 06:44:58;;;;;;;20.53;12.67;;;;;;;3.75;74.14;99906.49;1295194;86;9999795;-71
2022/11/24 06:47:25;;;;;;;19.70;12.58;;;;;;;3.77;74.06;99900.48;1521169;86;9999722;-71
2022/11/24 06:49:51;;;;;;;19.52;12.43;;;;;;;3.76;74.03;99898.36;1633751;87;21028;-71
2022/11/24 06:52:18;;;;;;;19.48;12.07;;;;;;;3.76;74.02;99897.55;1633847;87;21543;-71
2022/11/24 06:54:44;;;;;;;20.72;12.45;;;;;;;3.76;74.01;99890.95;1634087;87;21507;-71
2022/11/24 06:57:11;;;;;;;19.98;12.33;;;;;;;3.75;74.00;99894.11;1633777;87;21615;-71
2022/11/24 06:59:38;;;;;;;18.17;11.48;;;;;;;3.75;74.01;99894.60;1634147;87;21100;-71
2022/11/24 07:02:04;;;;;;;17.00;10.63;;;;;;;3.82;74.10;99892.69;1616123;86;21163;-72
2022/11/24 07:04:31;;;;;;;16.93;11.20;;;;;;;3.84;73.96;99886.64;1627121;86;21129;-71
2022/11/24 07:06:57;;;;;;;17.85;11.97;;;;;;;3.83;73.96;99893.48;1633444;86;21064;-72
2022/11/24 07:09:24;;;;;;;17.10;10.93;;;;;;;3.87;73.94;99891.47;1627881;86;21067;-71
2022/11/24 07:11:50;;;;;;;17.62;11.18;;;;;;;3.91;73.90;99887.84;1620908;87;21060;-71
2022/11/24 07:14:18;;;;;;;15.43;10.32;;;;;;;3.93;73.90;99881.30;1621131;86;21172;-71
2022/11/24 07:16:45;;;;;;;18.42;12.07;;;;;;;3.96;73.79;99880.84;1623172;86;21096;-73
2022/11/24 07:19:12;;;;;;;16.87;11.75;;;;;;;3.96;73.75;99884.81;1611755;87;21056;-74
2022/11/24 07:21:39;;;;;;;16.07;11.08;;;;;;;4.00;73.72;99885.95;1641981;86;20990;-73
2022/11/24 07:24:06;;;;;;;17.35;11.12;;;;;;;4.04;73.72;99888.14;1635804;87;21516;-72
2022/11/24 07:26:36;;;;;;;17.32;10.82;;;;;;;4.08;73.70;99882.67;1635264;86;21163;-72
2022/11/24 07:29:01;;;;;;;16.80;11.00;;;;;;;4.11;73.61;99881.69;1636888;86;21455;-72
2022/11/24 07:31:27;;;;;;;17.82;11.50;;;;;;;4.15;73.54;99881.54;1635833;87;21155;-72
2022/11/24 07:33:55;;;;;;;16.23;10.20;;;;;;;4.20;73.50;99882.16;1646264;86;21079;-72
2022/11/24 07:36:22;;;;;;;16.90;10.65;;;;;;;4.21;73.35;99880.63;1646297;86;21040;-72
2022/11/24 07:38:48;;;;;;;16.10;10.68;;;;;;;4.24;73.29;99883.30;1645683;86;21264;-72
2022/11/24 07:41:17;;;;;;;16.17;10.15;;;;;;;4.25;73.28;99878.31;1650635;86;21079;-72
2022/11/24 07:43:43;;;;;;;14.90;9.60;;;;;;;4.32;73.26;99881.63;1646548;86;21080;-72
2022/11/24 07:46:12;;;;;;;14.90;9.73;;;;;;;4.34;73.12;99879.55;1639582;86;21115;-74
2022/11/24 07:48:39;;;;;;;15.03;10.18;;;;;;;4.35;73.00;99878.53;1637100;86;21047;-75
2022/11/24 07:51:05;;;;;;;14.68;9.90;;;;;;;4.38;72.92;99886.00;1646615;86;21208;-72
2022/11/24 07:53:32;;;;;;;14.93;9.10;;;;;;;4.40;72.88;99884.43;1643911;86;21029;-72
2022/11/24 07:56:00;;;;;;;16.50;10.13;;;;;;;4.39;72.74;99883.62;1648675;86;21067;-72
2022/11/24 07:58:29;;;;;;;14.45;9.43;;;;;;;4.36;72.67;99881.45;1643868;86;21597;-72
2022/11/24 08:00:56;;;;;;;14.95;9.90;;;;;;;4.39;72.64;99883.62;1647979;86;21080;-72
2022/11/24 08:03:24;;;;;;;13.35;8.88;;;;;;;4.38;72.53;99883.36;1650083;86;21260;-72
2022/11/24 08:05:58;;;;;;;13.98;9.20;;;;;;;4.35;72.47;99885.14;1634439;86;21540;-72
2022/11/24 08:08:25;;;;;;;13.53;8.68;;;;;;;4.34;72.53;99891.44;1635971;87;20993;-72
2022/11/24 08:10:52;;;;;;;12.58;8.53;;;;;;;4.33;72.44;99892.48;1635370;86;21166;-72
2022/11/24 08:13:19;;;;;;;14.18;9.15;;;;;;;4.32;72.43;99888.77;1634592;87;20972;-72
2022/11/24 08:15:46;;;;;;;14.83;9.60;;;;;;;4.28;72.41;99893.72;1635301;87;21973;-71
2022/11/24 08:18:12;;;;;;;16.35;9.83;;;;;;;4.27;72.44;99895.25;1634926;86;21082;-72
2022/11/24 08:20:39;;;;;;;14.60;9.80;;;;;;;4.27;72.45;99886.80;1621522;86;21093;-71
2022/11/24 08:23:05;;;;;;;15.32;9.30;;;;;;;4.28;72.48;99887.11;1646972;86;21032;-72
2022/11/24 08:25:32;;;;;;;14.23;9.55;;;;;;;4.30;72.47;99889.50;1630671;86;21096;-71
2022/11/24 08:28:00;;;;;;;13.93;9.28;;;;;;;4.31;72.48;99887.97;1632814;86;21150;-71
2022/11/24 08:30:26;;;;;;;15.60;9.00;;;;;;;4.34;72.54;99890.12;1590182;90;21617;-73
2022/11/24 08:32:53;;;;;;;14.80;9.55;;;;;;;4.42;72.59;99889.78;1609343;88;21536;-73
2022/11/24 08:35:29;;;;;;;16.11;9.63;;;;;;;4.51;72.55;99889.41;1558734;88;9999812;-71
2022/11/24 08:37:55;;;;;;;14.97;9.00;;;;;;;4.59;72.82;99882.44;1477187;89;9999831;-72
2022/11/24 08:40:22;;;;;;;14.07;8.38;;;;;;;4.61;72.41;99890.44;1563401;90;21128;-71
2022/11/24 08:42:48;;;;;;;15.00;9.38;;;;;;;4.63;72.31;99883.58;1588980;90;21106;-71
2022/11/24 08:45:15;;;;;;;11.78;7.90;;;;;;;4.64;72.24;99883.36;1608452;89;21055;-72
2022/11/24 08:47:42;;;;;;;13.28;9.00;;;;;;;4.66;72.19;99876.50;1633753;87;21069;-72
2022/11/24 08:50:09;;;;;;;12.53;8.45;;;;;;;4.63;72.08;99878.28;1634070;87;21178;-71
2022/11/24 08:52:35;;;;;;;15.65;9.58;;;;;;;4.64;72.05;99877.23;1633987;87;21140;-72
2022/11/24 08:55:04;;;;;;;13.85;8.60;;;;;;;4.64;71.98;99878.56;1632405;86;21730;-72
2022/11/24 08:57:30;;;;;;;13.30;9.03;;;;;;;4.65;72.02;99876.22;1633824;87;21042;-72
2022/11/24 08:59:57;;;;;;;14.33;9.05;;;;;;;4.68;71.99;99872.59;1633172;86;21066;-72
2022/11/24 09:02:24;;;;;;;14.30;8.90;;;;;;;4.68;71.93;99876.55;1618582;86;21926;-71
2022/11/24 09:04:51;;;;;;;14.23;8.55;;;;;;;4.68;71.89;99877.08;1633193;87;21132;-72
2022/11/24 09:07:17;;;;;;;14.10;9.13;;;;;;;4.69;71.89;99868.09;1624169;86;21120;-71
2022/11/24 09:09:44;;;;;;;14.13;9.08;;;;;;;4.73;71.87;99870.55;1625317;87;21072;-72
2022/11/24 09:12:11;;;;;;;14.83;10.18;;;;;;;4.72;71.80;99875.56;1633607;87;21054;-71
2022/11/24 09:14:37;;;;;;;13.22;8.50;;;;;;;4.71;71.75;99871.32;1633933;86;21248;-71
2022/11/24 09:17:04;;;;;;;14.33;9.48;;;;;;;4.71;71.72;99868.67;1633843;87;21053;-72
2022/11/24 09:19:30;;;;;;;15.98;10.40;;;;;;;4.69;71.68;99866.77;1634367;86;21132;-71
2022/11/24 09:21:57;;;;;;;15.90;10.55;;;;;;;4.67;71.69;99864.87;1634083;87;21123;-71
2022/11/24 09:24:23;;;;;;;14.95;9.60;;;;;;;4.69;71.74;99865.45;1634077;87;21084;-72
2022/11/24 09:26:49;;;;;;;15.88;10.68;;;;;;;4.72;71.72;99867.62;1632943;87;21108;-72
2022/11/24 09:29:16;;;;;;;14.98;9.83;;;;;;;4.73;71.71;99863.94;1633611;87;21215;-72
2022/11/24 09:31:42;;;;;;;15.53;10.35;;;;;;;4.79;71.73;99855.59;1633178;87;21633;-72
2022/11/24 09:34:12;;;;;;;13.53;9.60;;;;;;;4.79;71.63;99856.38;1631294;87;21677;-72
2022/11/24 09:36:39;;;;;;;15.32;9.63;;;;;;;4.79;71.59;99857.70;1633942;87;21083;-72
2022/11/24 09:39:05;;;;;;;13.08;9.78;;;;;;;4.77;71.52;99857.65;1633843;87;21095;-72
2022/11/24 09:42:07;;;;;;;13.80;9.93;;;;;;;4.78;71.62;99852.66;1633757;87;21117;-72
2022/11/24 09:45:10;;;;;;;14.03;9.80;;;;;;;4.80;71.59;99854.02;1632403;87;21068;-73
2022/11/24 09:48:04;;;;;;;14.75;9.83;;;;;;;4.80;71.54;99846.59;1633819;87;28810;-71
2022/11/24 09:50:34;;;;;;;13.88;9.25;;;;;;;4.80;71.61;99844.75;1633784;87;21112;-71
2022/11/24 09:53:22;;;;;;;11.95;8.45;;;;;;;4.80;71.65;99847.40;1632595;87;21109;-74
2022/11/24 09:56:01;;;;;;;14.87;9.78;;;;;;;4.81;71.67;99839.77;1633348;87;21084;-72
2022/11/24 09:58:53;;;;;;;13.08;8.60;;;;;;;4.80;71.61;99836.02;1633605;87;21088;-71
2022/11/24 10:01:29;;;;;;;13.58;9.25;;;;;;;4.79;71.61;99837.86;1633935;87;21061;-72
2022/11/24 10:03:56;;;;;;;12.85;9.13;;;;;;;4.75;71.66;99830.12;1633954;87;21100;-74
2022/11/24 10:06:41;;;;;;;13.53;9.35;;;;;;;4.77;71.76;99836.48;1633803;87;21286;-72
2022/11/24 10:09:49;;;;;;;12.65;8.65;;;;;;;4.78;71.79;99835.47;1634038;87;21170;-73
2022/11/24 10:12:30;;;;;;;12.65;8.63;;;;;;;4.77;71.79;99838.64;1631329;86;21226;-71
2022/11/24 10:15:14;;;;;;;;;;;;;;;4.73;71.80;99833.52;1636080;87;21060;-71
2022/11/24 10:18:26;;;;;;;13.08;8.90;;;;;;;4.75;71.90;99831.45;1625000;87;20487;-71
2022/11/24 10:21:24;;;;;;;13.03;9.28;;;;;;;4.78;71.95;99834.14;1619877;86;21138;-72
2022/11/24 10:24:18;;;;;;;11.10;8.08;;;;;;;4.78;71.95;99834.14;1630490;88;21039;-72
2022/11/24 10:27:02;;;;;;;13.93;8.58;;;;;;;4.84;72.02;99839.30;1625845;86;21144;-73
2022/11/24 10:29:41;;;;;;;12.55;8.18;;;;;;;4.87;71.98;99841.47;1634628;87;21751;-72
2022/11/24 10:32:21;;;;;;;13.50;8.40;;;;;;;4.87;71.92;99832.70;1630635;86;21552;-72
2022/11/24 10:34:49;;;;;;;14.10;8.58;;;;;;;4.88;71.89;99841.75;1609464;89;21296;-72
2022/11/24 10:37:39;;;;;;;12.73;9.70;;;;;;;4.84;71.88;99836.65;1609520;89;21143;-72
2022/11/24 10:40:13;;;;;;;13.15;9.48;;;;;;;4.82;71.88;99838.72;1630270;87;22654;-72
2022/11/24 10:42:39;;;;;;;12.53;9.30;;;;;;;4.83;71.92;99832.38;1634003;87;21092;-72
2022/11/24 10:45:17;;;;;;;13.48;9.33;;;;;;;4.86;71.96;99835.88;1629974;86;21089;-72
2022/11/24 10:47:44;;;;;;;13.43;9.15;;;;;;;4.89;71.95;99838.57;1630072;87;21137;-72
2022/11/24 10:50:27;;;;;;;13.58;8.93;;;;;;;4.87;71.86;99836.17;1632971;87;21045;-74
2022/11/24 20:50:25;;;;;;;23.47;15.63;;;;;;;4.66;88.39;100039.98;1718657;82;22111;-67
2022/11/24 20:52:52;;;;;;;21.42;14.45;;;;;;;4.72;87.54;100044.88;1718471;82;21597;-67
2022/11/24 20:55:18;;;;;;;24.70;14.83;;;;;;;4.81;86.97;100053.28;1698412;84;21151;-69
2022/11/24 20:57:45;;;;;;;21.60;14.20;;;;;;;4.87;86.34;100049.69;1722815;81;21083;-67
2022/11/24 21:00:14;;;;;;;22.70;14.68;;;;;;;4.91;85.76;100050.85;1727812;83;21102;-69
2022/11/24 21:02:41;;;;;;;22.82;13.88;;;;;;;4.94;85.21;100048.55;1726331;83;21107;-67
2022/11/24 21:05:08;;;;;;;24.87;14.60;;;;;;;4.95;84.65;100050.67;1699007;83;21112;-68
2022/11/24 21:07:36;;;;;;;23.30;14.73;;;;;;;4.95;84.16;100055.96;1666226;84;21079;-67
2022/11/24 21:10:04;;;;;;;22.82;14.30;;;;;;;4.96;83.77;100063.38;1699990;83;21054;-68
2022/11/24 21:12:31;;;;;;;21.57;13.48;;;;;;;4.96;83.37;100062.05;1720033;83;21050;-67
2022/11/24 21:14:57;;;;;;;21.50;13.90;;;;;;;4.98;83.02;100059.47;1698673;84;21073;-68
2022/11/24 21:17:24;;;;;;;23.77;13.88;;;;;;;5.02;82.76;100066.42;1698914;84;21069;-68
2022/11/24 21:19:51;;;;;;;22.67;13.50;;;;;;;5.09;82.57;100070.55;1710266;82;21127;-67
2022/11/24 21:22:19;;;;;;;23.27;14.18;;;;;;;5.15;82.23;100067.50;1697638;84;21125;-69
2022/11/24 21:24:46;;;;;;;20.60;12.85;;;;;;;5.17;81.97;100069.41;1729789;82;21086;-65
2022/11/24 21:27:13;;;;;;;19.98;13.68;;;;;;;5.21;81.68;100073.19;1731774;82;21042;-66
2022/11/24 21:29:39;;;;;;;24.35;14.25;;;;;;;5.22;81.42;100072.66;1721949;82;21054;-67
2022/11/24 21:32:06;;;;;;;24.95;14.47;;;;;;;5.22;81.21;100068.17;1704723;82;21620;-71
2022/11/24 21:34:33;;;;;;;21.37;13.55;;;;;;;5.25;81.02;100070.36;1724635;83;22233;-69
2022/11/24 21:36:59;;;;;;;25.88;15.48;;;;;;;5.27;80.75;100068.81;1724784;82;21060;-68
2022/11/24 21:39:26;;;;;;;21.95;13.03;;;;;;;5.25;80.42;100065.58;1724552;83;21020;-67
2022/11/24 21:41:52;;;;;;;22.35;14.20;;;;;;;5.18;80.10;100060.41;1705296;82;21094;-67
2022/11/24 21:44:19;;;;;;;23.98;14.47;;;;;;;5.12;79.82;100065.31;1698714;83;21137;-67
2022/11/24 21:46:51;;;;;;;23.64;14.61;;;;;;;5.08;79.68;100066.30;1648044;83;10000533;-68
2022/11/24 21:49:17;;;;;;;25.25;15.08;;;;;;;5.07;79.51;100067.34;1716616;81;21419;-67
2022/11/24 21:51:44;;;;;;;25.20;15.13;;;;;;;5.08;79.46;100076.89;1716291;83;20939;-67
2022/11/24 21:54:11;;;;;;;26.73;15.80;;;;;;;5.12;79.41;100079.35;1703909;83;25477;-68
2022/11/24 21:56:37;;;;;;;30.32;16.80;;;;;;;5.16;79.25;100073.07;1719741;83;21143;-67
2022/11/24 21:59:04;;;;;;;25.85;14.73;;;;;;;5.16;79.06;100075.72;1723659;83;21046;-67
2022/11/24 22:01:31;;;;;;;23.90;14.78;;;;;;;5.15;78.88;100079.41;1724334;82;21055;-68
2022/11/24 22:03:59;;;;;;;27.48;16.10;;;;;;;5.16;78.73;100079.69;1716439;82;21094;-67
2022/11/24 22:06:26;;;;;;;28.98;16.67;;;;;;;5.17;78.53;100080.00;1722289;83;21102;-67
2022/11/24 22:08:52;;;;;;;27.30;15.60;;;;;;;5.17;78.42;100090.06;1724054;81;21255;-67
2022/11/24 22:11:21;;;;;;;28.60;16.17;;;;;;;5.17;78.35;100092.70;1697109;83;21110;-68
2022/11/24 22:13:48;;;;;;;30.35;16.57;;;;;;;5.17;78.17;100097.20;1719928;83;21094;-66
2022/11/24 22:16:21;;;;;;;30.80;17.23;;;;;;;5.20;78.06;100095.42;1710035;83;20989;-66
2022/11/24 22:18:49;;;;;;;27.77;15.75;;;;;;;5.21;77.95;100094.37;1723653;83;21062;-67
2022/11/24 22:21:22;;;;;;;28.12;15.32;;;;;;;5.22;77.78;100101.27;1708675;82;21216;-67
2022/11/24 22:23:51;;;;;;;30.30;16.90;;;;;;;5.21;77.59;100093.05;1719225;83;21063;-67
2022/11/24 22:26:20;;;;;;;29.92;16.42;;;;;;;5.20;77.47;100090.62;1709355;83;21067;-68
2022/11/24 22:28:47;;;;;;;31.33;16.62;;;;;;;5.20;77.36;100092.77;1721110;83;21476;-66
2022/11/24 22:31:20;;;;;;;26.37;15.50;;;;;;;5.17;77.22;100093.23;1718828;83;21079;-67
2022/11/24 22:33:47;;;;;;;36.28;16.57;;;;;;;5.17;77.14;100094.55;1718883;83;21153;-67
2022/11/24 22:36:15;;;;;;;29.37;16.57;;;;;;;5.20;77.10;100100.71;1709603;83;21043;-67
2022/11/24 22:38:42;;;;;;;36.48;17.30;;;;;;;5.24;77.06;100099.73;1720115;83;22333;-67
2022/11/24 22:41:14;;;;;;;30.57;17.23;;;;;;;5.27;77.01;100106.69;1708524;83;22029;-66
2022/11/24 22:43:42;;;;;;;28.15;17.02;;;;;;;5.31;76.95;100103.84;1704195;83;21062;-67
2022/11/24 22:46:12;;;;;;;30.82;16.73;;;;;;;5.36;76.79;100107.11;1724715;83;21213;-69
2022/11/24 22:48:40;;;;;;;30.50;17.57;;;;;;;5.33;76.48;100103.60;1723311;83;21011;-68
2022/11/24 22:51:10;;;;;;;30.60;17.35;;;;;;;5.27;76.27;100105.88;1715651;82;21069;-67
2022/11/24 22:53:38;;;;;;;33.55;16.95;;;;;;;5.23;76.12;100104.22;1691912;82;21081;-68
2022/11/24 22:56:09;;;;;;;30.68;18.05;;;;;;;5.22;76.06;100111.86;1712137;83;21066;-68
2022/11/24 22:58:36;;;;;;;45.48;18.12;;;;;;;5.22;75.95;100109.73;1714921;83;21160;-67
2022/11/24 23:01:07;;;;;;;32.55;18.00;;;;;;;5.18;75.84;100109.39;1724155;82;21047;-66
2022/11/24 23:03:36;;;;;;;35.90;18.70;;;;;;;5.17;75.71;100118.38;1723225;82;20999;-69
2022/11/24 23:06:05;;;;;;;35.33;18.25;;;;;;;5.13;75.65;100122.02;1707283;83;21039;-67
2022/11/24 23:08:34;;;;;;;39.60;18.67;;;;;;;5.12;75.61;100124.36;1723026;83;21652;-68
2022/11/24 23:11:03;;;;;;;39.33;18.87;;;;;;;5.10;75.55;100129.59;1723635;83;21189;-67
2022/11/24 23:13:31;;;;;;;30.40;17.15;;;;;;;5.09;75.52;100126.66;1723426;82;21031;-68
2022/11/24 23:16:06;;;;;;;41.68;19.98;;;;;;;5.11;75.41;100131.22;1718418;83;21082;-67
2022/11/24 23:18:33;;;;;;;31.68;18.10;;;;;;;5.07;75.31;100132.72;1721161;83;21035;-69
2022/11/24 23:21:15;;;;;;;43.30;20.30;;;;;;;5.04;75.29;100134.50;1724449;82;21154;-65
2022/11/24 23:23:42;;;;;;;46.33;21.05;;;;;;;5.02;75.26;100132.59;1709541;82;21151;-67
2022/11/24 23:26:23;;;;;;;47.43;20.75;;;;;;;5.01;75.27;100136.28;1725516;81;21487;-67
2022/11/24 23:28:50;;;;;;;45.92;21.55;;;;;;;5.02;75.30;100140.53;1724453;83;21053;-68
2022/11/24 23:31:20;;;;;;;39.70;20.62;;;;;;;5.03;75.30;100142.14;1723786;83;21474;-67
2022/11/24 23:33:46;;;;;;;35.75;20.17;;;;;;;5.04;75.30;100141.92;1725384;83;21204;-67
2022/11/24 23:36:18;;;;;;;37.48;19.77;;;;;;;5.04;75.25;100134.50;1724866;83;21260;-66
2022/11/24 23:38:46;;;;;;;35.45;19.80;;;;;;;5.05;75.21;100138.75;1726144;83;21083;-67
2022/11/24 23:41:19;;;;;;;35.28;19.17;;;;;;;5.01;75.15;100138.41;1724977;83;21012;-67
2022/11/24 23:43:45;;;;;;;38.30;20.45;;;;;;;4.99;75.10;100135.70;1725773;82;21066;-67
2022/11/24 23:46:19;;;;;;;40.20;20.10;;;;;;;4.98;75.09;100144.16;1724703;82;21019;-67
2022/11/24 23:48:46;;;;;;;37.75;19.37;;;;;;;4.99;75.15;100144.97;1725450;83;21460;-67
2022/11/24 23:51:19;;;;;;;32.15;18.07;;;;;;;4.97;75.16;100139.08;1725232;83;21011;-66
2022/11/24 23:53:45;;;;;;;35.08;19.55;;;;;;;4.98;75.16;100142.04;1725199;82;21085;-68
2022/11/24 23:56:19;;;;;;;33.42;17.92;;;;;;;4.98;75.13;100143.36;1725728;83;21064;-67
2022/11/24 23:58:46;;;;;;;37.23;19.42;;;;;;;5.01;75.18;100145.55;1724280;82;21055;-68
